Impacts TAF Board INFO
FOR SITUATIONAL AWARENESS. NOT TO BE USED FOR FLIGHT PLANNING PURPOSES.
IDs:

KDHN - Dothan Rgnl, AL, US

Issued at 0902 UTC 17 Aug 2018
Updated at 0931 UTC 17 Aug 2018
Potential Impact None Slight Moderate High
Time<<17/22Z 17/23Z 18/00Z 18/01Z 18/02Z 18/03Z 18/04Z 18/05Z 18/06Z 18/07Z 18/08Z 18/09Z 18/10Z>>
Type PRVL PRVL PRVL PRVL PRVL PRVL PRVL PRVL
VIS >6 >6 >6 >6 >6 >6 >6 >6
CIG 40 40 250 250 250 250 250 250
Cover BKN BKN OVC OVC OVC OVC OVC OVC
FltCat VFR VFR VFR VFR VFR VFR VFR VFR
WX VCTS VCTS -- -- -- -- -- --
WDir 200 200 190 190 190 190 190 190
WSpd 8 8 6 6 6 6 6 6
WGst -- -- -- -- -- -- -- --

Raw TAF
KDHN 170902Z 1709/1806 VRB04KT 3SM BR BKN001 BKN024 OVC040
  TEMPO 1709/1713 6SM BR SCT001 BKN024
  FM171500 18005KT P6SM SCT030 OVC120
  FM171800 20008KT P6SM VCTS BKN040CB
  FM180000 19006KT P6SM OVC250


METAR Board
Radar Display
Forecast Discussion

FOR SITUATIONAL AWARENESS. NOT TO BE USED FOR FLIGHT PLANNING PURPOSES.